createdAt,value
2022-10-01T00:02:00.839Z,10.26
2022-10-01T00:04:28.184Z,10.25
2022-10-01T00:06:54.662Z,10.24
2022-10-01T00:09:21.156Z,10.21
2022-10-01T00:11:47.597Z,10.22
2022-10-01T00:14:13.983Z,10.20
2022-10-01T00:16:40.495Z,10.20
2022-10-01T00:19:06.980Z,10.20
2022-10-01T00:21:33.680Z,10.20
2022-10-01T00:24:04.429Z,10.18
2022-10-01T00:26:34.052Z,10.17
2022-10-01T00:29:04.386Z,10.16
2022-10-01T00:31:31.107Z,10.15
2022-10-01T00:34:00.265Z,10.14
2022-10-01T00:36:27.224Z,10.14
2022-10-01T00:38:53.637Z,10.12
2022-10-01T00:41:20.145Z,10.11
2022-10-01T00:43:57.306Z,10.11
2022-10-01T00:46:29.418Z,10.11
2022-10-01T00:49:04.106Z,10.09
2022-10-01T00:51:34.195Z,10.09
2022-10-01T00:54:08.345Z,10.10
2022-10-01T00:56:34.939Z,10.08
2022-10-01T00:59:02.384Z,10.09
2022-10-01T01:01:28.875Z,10.09
2022-10-01T01:03:56.434Z,10.10
2022-10-01T01:06:22.867Z,10.11
2022-10-01T01:08:54.973Z,10.12
2022-10-01T01:11:53.608Z,10.12
2022-10-01T01:14:31.988Z,10.13
2022-10-01T01:17:08.534Z,10.13
2022-10-01T01:20:05.247Z,10.13
2022-10-01T01:22:37.360Z,10.15
2022-10-01T01:25:17.516Z,10.14
2022-10-01T01:28:31.664Z,10.14
2022-10-01T01:31:07.888Z,10.13
2022-10-01T01:33:37.234Z,10.14
2022-10-01T01:36:13.715Z,10.14
2022-10-01T01:38:46.359Z,10.15
2022-10-01T01:41:15.494Z,10.16
2022-10-01T01:43:46.872Z,10.16
2022-10-01T01:46:17.633Z,10.15
2022-10-01T01:48:47.455Z,10.16
2022-10-01T01:51:38.316Z,10.17
2022-10-01T01:54:04.867Z,10.17
2022-10-01T01:56:31.986Z,10.19
2022-10-01T01:59:00.456Z,10.20
2022-10-01T02:01:43.179Z,10.19
2022-10-01T02:04:19.634Z,10.20
2022-10-01T02:07:03.990Z,10.20
2022-10-01T02:09:37.769Z,10.22
2022-10-01T02:12:30.210Z,10.22
2022-10-01T02:15:03.120Z,10.23
2022-10-01T02:17:57.421Z,10.23
2022-10-01T02:20:30.978Z,10.25
2022-10-01T02:23:03.578Z,10.26
2022-10-01T02:25:37.407Z,10.26
2022-10-01T02:28:10.896Z,10.26
2022-10-01T02:30:39.365Z,10.28
2022-10-01T02:33:09.659Z,10.28
2022-10-01T02:35:37.743Z,10.28
2022-10-01T02:38:07.434Z,10.29
2022-10-01T02:40:37.909Z,10.30
2022-10-01T02:43:10.890Z,10.30
2022-10-01T02:45:40.788Z,10.32
2022-10-01T02:48:11.744Z,10.34
2022-10-01T02:50:48.291Z,10.33
2022-10-01T02:53:42.238Z,10.34
2022-10-01T02:56:11.080Z,10.36
2022-10-01T02:58:37.559Z,10.38
2022-10-01T03:01:03.950Z,10.38
2022-10-01T03:03:32.333Z,10.39
2022-10-01T03:05:58.758Z,10.39
2022-10-01T03:08:25.219Z,10.42
2022-10-01T03:10:51.597Z,10.44
2022-10-01T03:13:19.669Z,10.44
2022-10-01T03:15:46.876Z,10.45
2022-10-01T03:18:13.291Z,10.47
2022-10-01T03:20:39.689Z,10.49
2022-10-01T03:23:06.099Z,10.50
2022-10-01T03:25:32.470Z,10.52
2022-10-01T03:27:58.884Z,10.54
2022-10-01T03:30:26.833Z,10.55
2022-10-01T03:32:53.328Z,10.56
2022-10-01T03:35:20.259Z,10.57
2022-10-01T03:37:47.602Z,10.59
2022-10-01T03:40:14.040Z,10.61
2022-10-01T03:42:40.480Z,10.62
2022-10-01T03:45:07.286Z,10.64
2022-10-01T03:47:34.093Z,10.66
2022-10-01T03:50:00.466Z,10.67
2022-10-01T03:52:26.904Z,10.69
2022-10-01T03:54:53.310Z,10.70
2022-10-01T03:57:19.744Z,10.71
2022-10-01T03:59:46.355Z,10.73
2022-10-01T04:02:12.871Z,10.73
2022-10-01T04:04:39.345Z,10.77
2022-10-01T04:07:05.761Z,10.77
2022-10-01T04:09:32.167Z,10.79
2022-10-01T04:11:59.108Z,10.81
2022-10-01T04:14:25.994Z,10.82
2022-10-01T04:16:52.786Z,10.83
2022-10-01T04:19:20.052Z,10.85
2022-10-01T04:21:46.460Z,10.86
2022-10-01T04:24:12.929Z,10.87
2022-10-01T04:26:39.345Z,10.89
2022-10-01T04:29:06.001Z,10.90
2022-10-01T04:31:35.019Z,10.92
2022-10-01T04:34:01.865Z,10.93
2022-10-01T04:36:28.484Z,10.94
2022-10-01T04:39:00.725Z,10.96
2022-10-01T04:41:30.566Z,10.96
2022-10-01T04:43:59.228Z,10.97
2022-10-01T04:46:25.793Z,11.00
2022-10-01T04:48:52.236Z,11.02
2022-10-01T04:51:18.669Z,11.04
2022-10-01T04:53:45.056Z,11.09
2022-10-01T04:56:11.481Z,11.10
2022-10-01T04:58:38.435Z,11.12
2022-10-01T05:01:05.014Z,11.12
2022-10-01T05:03:31.629Z,11.14
2022-10-01T05:05:58.224Z,11.18
2022-10-01T05:08:24.614Z,11.19
2022-10-01T05:10:51.025Z,11.21
2022-10-01T05:13:17.428Z,11.22
2022-10-01T05:15:44.690Z,11.22
2022-10-01T05:18:11.151Z,11.21
2022-10-01T05:20:38.286Z,11.22
2022-10-01T05:23:04.849Z,11.22
2022-10-01T05:25:31.295Z,11.22
2022-10-01T05:28:05.174Z,11.25
2022-10-01T05:30:32.670Z,11.26
2022-10-01T05:33:01.223Z,11.26
2022-10-01T05:35:28.195Z,11.29
2022-10-01T05:37:56.403Z,11.29
2022-10-01T05:40:25.649Z,11.28
2022-10-01T05:42:52.053Z,11.28
2022-10-01T05:45:20.916Z,11.28
2022-10-01T05:47:47.759Z,11.25
2022-10-01T05:50:14.525Z,11.21
2022-10-01T05:52:48.405Z,11.21
2022-10-01T05:55:15.227Z,11.21
2022-10-01T05:57:41.603Z,11.20
2022-10-01T06:00:08.427Z,11.19
2022-10-01T06:02:38.471Z,11.16
2022-10-01T06:05:05.229Z,11.14
2022-10-01T06:07:31.959Z,11.14
2022-10-01T06:09:58.365Z,11.15
2022-10-01T06:12:25.106Z,11.16
2022-10-01T06:14:51.486Z,11.18
2022-10-01T06:17:17.873Z,11.21
2022-10-01T06:19:44.243Z,11.24
2022-10-01T06:22:10.635Z,11.28
2022-10-01T06:24:37.272Z,11.32
2022-10-01T06:27:03.781Z,11.36
2022-10-01T06:29:30.145Z,11.41
2022-10-01T06:31:57.011Z,11.46
2022-10-01T06:34:23.450Z,11.50
2022-10-01T06:36:49.826Z,11.55
2022-10-01T06:39:17.027Z,11.79
2022-10-01T06:41:43.502Z,12.20
2022-10-01T06:44:14.994Z,12.43
2022-10-01T06:46:41.389Z,12.32
2022-10-01T06:49:07.935Z,12.21
2022-10-01T06:51:52.787Z,12.18
2022-10-01T06:54:19.176Z,12.23
2022-10-01T06:56:45.571Z,12.28
2022-10-01T06:59:12.040Z,12.34
2022-10-01T07:01:38.887Z,12.41
2022-10-01T07:04:05.600Z,12.46
2022-10-01T07:06:32.508Z,12.55
2022-10-01T07:08:58.891Z,12.66
2022-10-01T07:11:27.118Z,12.76
2022-10-01T07:13:54.686Z,12.90
2022-10-01T07:16:21.409Z,13.00
2022-10-01T07:18:47.833Z,13.17
2022-10-01T07:21:14.215Z,13.25
2022-10-01T07:23:40.626Z,13.25
2022-10-01T07:26:09.054Z,13.30
2022-10-01T07:28:35.485Z,13.34
2022-10-01T07:31:12.007Z,13.37
2022-10-01T07:33:39.606Z,13.32
2022-10-01T07:36:08.569Z,13.38
2022-10-01T07:38:35.351Z,13.41
2022-10-01T07:41:03.338Z,13.47
2022-10-01T07:43:31.726Z,13.52
2022-10-01T07:46:00.020Z,13.67
2022-10-01T07:48:27.424Z,13.69
2022-10-01T07:50:53.873Z,13.73
2022-10-01T07:53:20.408Z,13.75
2022-10-01T07:55:46.858Z,13.80
2022-10-01T07:58:13.497Z,13.93
2022-10-01T08:00:40.166Z,14.06
2022-10-01T08:03:06.797Z,14.34
2022-10-01T08:05:35.721Z,14.54
2022-10-01T08:08:05.458Z,14.38
2022-10-01T08:10:36.495Z,14.23
2022-10-01T08:13:15.103Z,14.13
2022-10-01T08:15:42.778Z,14.07
2022-10-01T08:18:09.868Z,13.94
2022-10-01T08:20:36.280Z,13.92
2022-10-01T08:23:05.094Z,13.90
2022-10-01T08:25:31.594Z,13.92
2022-10-01T08:27:58.062Z,13.92
2022-10-01T08:30:25.378Z,13.84
2022-10-01T08:32:56.165Z,13.81
2022-10-01T08:35:24.092Z,13.79
2022-10-01T08:37:51.000Z,13.80
2022-10-01T08:40:20.324Z,13.84
2022-10-01T08:42:59.911Z,14.03
2022-10-01T08:45:47.694Z,14.40
2022-10-01T08:48:29.325Z,14.50
2022-10-01T08:51:04.744Z,14.41
2022-10-01T08:53:40.759Z,14.57
2022-10-01T08:56:24.147Z,14.67
2022-10-01T08:58:58.279Z,14.51
2022-10-01T09:01:26.322Z,14.49
2022-10-01T09:03:53.770Z,14.61
2022-10-01T09:06:25.081Z,14.70
2022-10-01T09:08:57.158Z,14.95
2022-10-01T09:11:47.945Z,15.05
2022-10-01T09:14:30.656Z,15.32
2022-10-01T09:17:19.171Z,15.45
2022-10-01T09:20:22.903Z,15.54
2022-10-01T09:23:04.319Z,15.61
2022-10-01T09:25:31.549Z,15.76
2022-10-01T09:28:11.184Z,15.94
2022-10-01T09:30:43.516Z,16.05
2022-10-01T09:33:17.251Z,16.19
2022-10-01T09:36:04.608Z,16.20
2022-10-01T09:38:48.857Z,15.86
2022-10-01T09:41:16.038Z,15.80
2022-10-01T09:43:44.662Z,15.74
2022-10-01T09:46:17.083Z,15.57
2022-10-01T09:49:11.204Z,15.56
2022-10-01T09:51:45.243Z,15.69
2022-10-01T09:54:23.763Z,15.88
2022-10-01T09:57:00.588Z,15.98
2022-10-01T09:59:34.416Z,16.16
2022-10-01T10:02:03.899Z,16.34
2022-10-01T10:04:30.969Z,16.36
2022-10-01T10:07:05.524Z,16.01
2022-10-01T10:09:35.072Z,15.80
2022-10-01T10:12:02.221Z,15.57
2022-10-01T10:14:32.167Z,15.31
2022-10-01T10:17:05.337Z,15.26
2022-10-01T10:19:33.174Z,15.41
2022-10-01T10:22:23.104Z,15.60
2022-10-01T10:24:49.608Z,15.72
2022-10-01T10:27:26.753Z,15.73
2022-10-01T10:30:07.008Z,15.64
2022-10-01T10:32:33.538Z,15.50
2022-10-01T10:35:05.432Z,15.51
2022-10-01T10:37:36.873Z,15.64
2022-10-01T10:40:08.215Z,15.72
2022-10-01T10:42:38.714Z,15.80
2022-10-01T10:45:17.358Z,15.79
2022-10-01T10:47:46.728Z,15.82
2022-10-01T10:50:29.809Z,15.93
2022-10-01T10:52:57.337Z,15.93
2022-10-01T10:55:28.810Z,16.01
2022-10-01T10:57:57.709Z,16.15
2022-10-01T11:00:26.135Z,16.31
2022-10-01T11:03:04.177Z,16.31
2022-10-01T11:05:32.976Z,16.00
2022-10-01T11:08:03.560Z,15.85
2022-10-01T11:10:32.731Z,15.89
2022-10-01T11:13:20.177Z,15.97
2022-10-01T11:16:19.204Z,16.12
2022-10-01T11:18:58.369Z,16.39
2022-10-01T11:21:41.635Z,16.49
2022-10-01T11:24:49.891Z,16.55
2022-10-01T11:27:27.185Z,16.51
2022-10-01T11:30:10.595Z,16.38
2022-10-01T11:32:48.658Z,16.13
2022-10-01T11:35:25.553Z,15.86
2022-10-01T11:38:13.240Z,15.85
2022-10-01T11:40:42.850Z,15.85
2022-10-01T11:43:31.362Z,15.67
2022-10-01T11:46:08.482Z,15.50
2022-10-01T11:48:43.141Z,15.45
2022-10-01T11:51:16.277Z,15.52
2022-10-01T11:54:00.492Z,15.75
2022-10-01T11:56:49.283Z,15.92
2022-10-01T11:59:34.816Z,16.12
2022-10-01T12:02:19.954Z,16.22
2022-10-01T12:04:59.387Z,16.34
2022-10-01T12:07:37.843Z,16.20
2022-10-01T12:10:21.275Z,15.94
2022-10-01T12:13:04.289Z,15.74
2022-10-01T12:15:44.774Z,15.63
2022-10-01T12:18:18.570Z,15.64
2022-10-01T12:20:50.340Z,15.67
2022-10-01T12:23:20.098Z,15.80
2022-10-01T12:26:04.270Z,15.76
2022-10-01T12:28:42.464Z,15.81
2022-10-01T12:31:24.997Z,15.86
2022-10-01T12:34:22.272Z,15.95
2022-10-01T12:36:59.222Z,16.10
2022-10-01T12:39:56.920Z,16.32
2022-10-01T12:43:04.262Z,16.58
2022-10-01T12:45:46.266Z,16.71
2022-10-01T12:48:44.657Z,16.75
2022-10-01T12:51:29.759Z,16.52
2022-10-01T12:54:05.245Z,16.16
2022-10-01T12:56:49.651Z,15.91
2022-10-01T12:59:37.388Z,15.79
2022-10-01T13:02:07.800Z,15.85
2022-10-01T13:04:56.603Z,16.05
2022-10-01T13:07:50.488Z,16.31
2022-10-01T13:10:29.661Z,16.61
2022-10-01T13:13:01.826Z,16.80
2022-10-01T13:15:34.884Z,16.88
2022-10-01T13:18:23.167Z,16.85
2022-10-01T13:21:05.643Z,16.79
2022-10-01T13:23:43.697Z,16.78
2022-10-01T13:26:22.829Z,16.80
2022-10-01T13:28:54.093Z,16.83
2022-10-01T13:31:35.017Z,16.84
2022-10-01T13:34:02.668Z,16.89
2022-10-01T13:36:35.611Z,16.93
2022-10-01T13:39:02.194Z,16.86
2022-10-01T13:41:32.131Z,16.88
2022-10-01T13:44:02.558Z,16.75
2022-10-01T13:46:31.647Z,16.54
2022-10-01T13:49:24.095Z,16.50
2022-10-01T13:51:52.517Z,16.63
2022-10-01T13:54:39.812Z,16.76
2022-10-01T13:57:36.167Z,16.72
2022-10-01T14:00:11.597Z,16.70
2022-10-01T14:03:00.068Z,16.54
2022-10-01T14:05:36.867Z,16.40
2022-10-01T14:08:29.073Z,16.44
2022-10-01T14:11:16.720Z,16.56
2022-10-01T14:14:05.855Z,16.58
2022-10-01T14:16:39.808Z,16.62
2022-10-01T14:19:07.644Z,16.52
2022-10-01T14:22:01.867Z,16.47
2022-10-01T14:24:55.528Z,16.43
2022-10-01T14:27:52.946Z,16.38
2022-10-01T14:30:39.539Z,16.30
2022-10-01T14:33:08.879Z,16.32
2022-10-01T14:35:42.732Z,16.28
2022-10-01T14:38:20.543Z,16.27
2022-10-01T14:40:49.103Z,16.41
2022-10-01T14:43:20.088Z,16.52
2022-10-01T14:46:00.288Z,16.59
2022-10-01T14:48:31.796Z,16.47
2022-10-01T14:51:00.637Z,16.39
2022-10-01T14:53:29.784Z,16.38
2022-10-01T14:56:01.064Z,16.27
2022-10-01T14:58:31.600Z,16.19
2022-10-01T15:00:59.124Z,16.10
2022-10-01T15:03:25.622Z,16.14
2022-10-01T15:06:03.615Z,16.25
2022-10-01T15:08:42.301Z,16.31
2022-10-01T15:11:19.543Z,16.32
2022-10-01T15:13:48.641Z,16.33
2022-10-01T15:16:21.030Z,16.30
2022-10-01T15:18:54.826Z,16.19
2022-10-01T15:21:28.565Z,16.11
2022-10-01T15:23:55.217Z,16.05
2022-10-01T15:26:27.341Z,15.98
2022-10-01T15:29:16.488Z,15.97
2022-10-01T15:31:45.224Z,15.94
2022-10-01T15:34:15.902Z,15.91
2022-10-01T15:36:43.849Z,15.87
2022-10-01T15:39:22.310Z,15.80
2022-10-01T15:41:54.286Z,15.76
2022-10-01T15:44:46.225Z,15.77
2022-10-01T15:47:27.527Z,15.77
2022-10-01T15:50:12.280Z,15.67
2022-10-01T15:52:51.479Z,15.58
2022-10-01T15:55:22.160Z,15.53
2022-10-01T15:58:03.320Z,15.49
2022-10-01T16:00:34.570Z,15.49
2022-10-01T16:03:02.412Z,15.50
2022-10-01T16:05:37.711Z,15.48
2022-10-01T16:08:05.198Z,15.42
2022-10-01T16:10:37.699Z,15.33
2022-10-01T16:13:26.934Z,15.24
2022-10-01T16:16:30.234Z,15.17
2022-10-01T16:19:00.020Z,15.08
2022-10-01T16:21:26.829Z,15.04
2022-10-01T16:23:55.767Z,15.00
2022-10-01T16:26:29.058Z,14.99
2022-10-01T16:28:57.930Z,14.98
2022-10-01T16:31:29.050Z,14.95
2022-10-01T16:33:55.470Z,14.89
2022-10-01T16:36:24.304Z,14.84
2022-10-01T16:38:51.183Z,14.80
2022-10-01T16:41:23.385Z,14.78
2022-10-01T16:43:51.639Z,14.75
2022-10-01T16:46:18.147Z,14.70
2022-10-01T16:48:47.689Z,14.67
2022-10-01T16:51:14.089Z,14.62
2022-10-01T16:53:42.755Z,14.58
2022-10-01T16:56:10.758Z,14.56
2022-10-01T16:58:40.812Z,14.54
2022-10-01T17:01:08.926Z,14.51
2022-10-01T17:03:36.297Z,14.50
2022-10-01T17:06:03.124Z,14.45
2022-10-01T17:08:29.592Z,14.42
2022-10-01T17:10:59.812Z,14.37
2022-10-01T17:13:32.548Z,14.30
2022-10-01T17:15:59.979Z,14.24
2022-10-01T17:18:26.400Z,14.17
2022-10-01T17:20:52.771Z,14.09
2022-10-01T17:23:22.212Z,14.03
2022-10-01T17:25:49.516Z,13.97
2022-10-01T17:28:18.756Z,13.89
2022-10-01T17:30:47.909Z,13.85
2022-10-01T17:33:15.676Z,13.78
2022-10-01T17:35:51.367Z,13.71
2022-10-01T17:38:19.072Z,13.63
2022-10-01T17:40:45.528Z,13.59
2022-10-01T17:43:13.695Z,13.53
2022-10-01T17:45:40.438Z,13.44
2022-10-01T17:48:07.054Z,13.38
2022-10-01T17:50:33.496Z,13.33
2022-10-01T17:53:00.695Z,13.29
2022-10-01T17:55:27.816Z,13.24
2022-10-01T17:57:54.248Z,13.18
2022-10-01T18:00:20.754Z,13.12
2022-10-01T18:02:47.222Z,13.09
2022-10-01T18:05:15.015Z,13.03
2022-10-01T18:07:42.401Z,12.99
2022-10-01T18:10:11.719Z,12.93
2022-10-01T18:12:39.786Z,12.89
2022-10-01T18:15:07.253Z,12.88
2022-10-01T18:17:36.308Z,12.85
2022-10-01T18:20:05.937Z,12.82
2022-10-01T18:22:32.606Z,12.76
2022-10-01T18:24:59.060Z,12.72
2022-10-01T18:27:25.619Z,12.69
2022-10-01T18:29:52.041Z,12.65
2022-10-01T18:32:27.332Z,12.61
2022-10-01T18:34:58.969Z,12.56
2022-10-01T18:37:40.013Z,12.54
2022-10-01T18:40:18.108Z,12.49
2022-10-01T18:43:02.857Z,12.43
2022-10-01T18:46:26.523Z,12.40
2022-10-01T18:49:07.184Z,12.34
2022-10-01T18:51:43.210Z,12.29
2022-10-01T18:54:33.494Z,12.24
2022-10-01T18:57:30.966Z,12.21
2022-10-01T19:00:08.805Z,12.18
2022-10-01T19:02:54.037Z,12.14
2022-10-01T19:05:57.819Z,12.12
2022-10-01T19:08:49.322Z,12.10
2022-10-01T19:11:31.382Z,12.08
2022-10-01T19:14:33.664Z,12.05
2022-10-01T19:17:12.042Z,12.06
2022-10-01T19:19:57.332Z,12.03
2022-10-01T19:22:58.697Z,12.02
2022-10-01T19:25:43.422Z,12.00
2022-10-01T19:28:25.801Z,11.97
2022-10-01T19:31:15.763Z,11.98
2022-10-01T19:33:51.620Z,11.97
2022-10-01T19:36:34.416Z,11.98
2022-10-01T19:39:06.489Z,12.00
2022-10-01T19:41:59.296Z,12.02
2022-10-01T19:44:35.243Z,12.01
2022-10-01T19:47:31.530Z,12.00
2022-10-01T19:50:06.381Z,11.97
2022-10-01T19:52:38.158Z,11.93
2022-10-01T19:55:12.357Z,11.94
2022-10-01T19:57:42.001Z,11.92
2022-10-01T20:00:18.012Z,11.89
2022-10-01T20:03:09.539Z,11.87
2022-10-01T20:05:51.167Z,11.85
2022-10-01T20:08:48.727Z,11.85
2022-10-01T20:11:44.107Z,11.81
2022-10-01T20:14:53.836Z,11.79
2022-10-01T20:17:29.495Z,11.77
2022-10-01T20:20:07.797Z,11.75
2022-10-01T20:22:45.368Z,11.75
2022-10-01T20:25:39.186Z,11.72
2022-10-01T20:28:24.712Z,11.72
2022-10-01T20:31:01.498Z,11.69
2022-10-01T20:33:57.457Z,11.68
2022-10-01T20:36:34.870Z,11.67
2022-10-01T20:39:12.815Z,11.64
2022-10-01T20:41:49.184Z,11.61
2022-10-01T20:44:22.229Z,11.57
2022-10-01T20:46:52.011Z,11.55
2022-10-01T20:49:32.076Z,11.55
2022-10-01T20:52:02.044Z,11.52
2022-10-01T20:54:36.747Z,11.51
2022-10-01T20:57:41.552Z,11.48
2022-10-01T21:00:18.561Z,11.47
2022-10-01T21:02:59.308Z,11.45
2022-10-01T21:05:33.270Z,11.46
2022-10-01T21:08:08.406Z,11.44
2022-10-01T21:10:46.281Z,11.41
2022-10-01T21:13:32.942Z,11.40
2022-10-01T21:16:26.637Z,11.40
2022-10-01T21:19:05.303Z,11.40
2022-10-01T21:21:58.024Z,11.39
2022-10-01T21:24:44.187Z,11.37
2022-10-01T21:27:23.996Z,11.37
2022-10-01T21:29:59.526Z,11.33
2022-10-01T21:32:41.245Z,11.31
2022-10-01T21:35:39.897Z,11.28
2022-10-01T21:38:28.799Z,11.28
2022-10-01T21:41:14.158Z,11.26
2022-10-01T21:44:14.151Z,11.23
2022-10-01T21:47:02.736Z,11.22
2022-10-01T21:50:10.800Z,11.20
2022-10-01T21:52:37.197Z,11.17
2022-10-01T21:55:12.347Z,11.19
2022-10-01T21:57:51.538Z,11.20
2022-10-01T22:00:26.131Z,11.16
2022-10-01T22:03:19.918Z,11.14
2022-10-01T22:06:17.128Z,11.15
2022-10-01T22:09:01.628Z,11.17
2022-10-01T22:11:36.388Z,11.17
2022-10-01T22:14:12.362Z,11.17
2022-10-01T22:16:46.026Z,11.21
2022-10-01T22:19:28.623Z,11.22
2022-10-01T22:22:09.825Z,11.25
2022-10-01T22:24:46.136Z,11.27
2022-10-01T22:27:20.081Z,11.26
2022-10-01T22:30:00.204Z,11.31
2022-10-01T22:32:30.726Z,11.34
2022-10-01T22:35:04.685Z,11.37
2022-10-01T22:37:37.401Z,11.42
2022-10-01T22:40:13.534Z,11.46
2022-10-01T22:42:53.578Z,11.53
2022-10-01T22:45:29.642Z,11.58
2022-10-01T22:48:23.872Z,11.72
2022-10-01T22:51:09.885Z,11.83
2022-10-01T22:53:51.221Z,11.90
2022-10-01T22:56:27.385Z,11.94
2022-10-01T22:59:42.051Z,11.95
2022-10-01T23:02:30.103Z,11.91
2022-10-01T23:05:07.186Z,11.91
2022-10-01T23:08:20.949Z,11.93
2022-10-01T23:10:58.148Z,11.97
2022-10-01T23:13:56.375Z,12.03
2022-10-01T23:16:35.119Z,12.06
2022-10-01T23:19:10.837Z,12.07
2022-10-01T23:21:50.355Z,12.04
2022-10-01T23:24:39.725Z,12.06
2022-10-01T23:27:38.664Z,12.00
2022-10-01T23:30:11.672Z,11.97
2022-10-01T23:33:02.578Z,11.93
2022-10-01T23:36:04.924Z,11.90
2022-10-01T23:38:31.240Z,11.88
2022-10-01T23:41:16.658Z,11.86
2022-10-01T23:43:49.052Z,11.83
2022-10-01T23:46:31.376Z,11.82
2022-10-01T23:49:06.600Z,11.77
2022-10-01T23:51:47.682Z,11.78
2022-10-01T23:54:32.384Z,11.78
2022-10-01T23:57:04.981Z,11.77
2022-10-01T23:59:43.249Z,11.75
